sensor_id;sensor_type;location;lat;lon;timestamp;pressure;altitude;pressure_sealevel;temperature;humidity
58018;BME280;43810;50.860;19.226;2023-11-21T00:00:31;97642.50;;;8.35;100.00
58018;BME280;43810;50.860;19.226;2023-11-21T00:03:17;97643.50;;;8.30;100.00
58018;BME280;43810;50.860;19.226;2023-11-21T00:05:44;97642.72;;;8.30;100.00
58018;BME280;43810;50.860;19.226;2023-11-21T00:08:10;97642.53;;;8.22;100.00
58018;BME280;43810;50.860;19.226;2023-11-21T00:10:36;97647.81;;;8.22;100.00
58018;BME280;43810;50.860;19.226;2023-11-21T00:13:04;97642.41;;;8.31;100.00
58018;BME280;43810;50.860;19.226;2023-11-21T00:15:30;97649.66;;;8.34;100.00
58018;BME280;43810;50.860;19.226;2023-11-21T00:17:56;97655.00;;;8.22;100.00
58018;BME280;43810;50.860;19.226;2023-11-21T00:20:21;97653.78;;;8.19;100.00
58018;BME280;43810;50.860;19.226;2023-11-21T00:22:47;97652.69;;;8.20;100.00
58018;BME280;43810;50.860;19.226;2023-11-21T00:25:13;97652.66;;;8.33;100.00
58018;BME280;43810;50.860;19.226;2023-11-21T00:27:41;97663.13;;;8.29;100.00
58018;BME280;43810;50.860;19.226;2023-11-21T00:30:07;97656.97;;;8.25;100.00
58018;BME280;43810;50.860;19.226;2023-11-21T00:32:37;97656.75;;;8.18;100.00
58018;BME280;43810;50.860;19.226;2023-11-21T00:35:04;97658.84;;;8.24;100.00
58018;BME280;43810;50.860;19.226;2023-11-21T00:37:30;97654.22;;;8.21;100.00
58018;BME280;43810;50.860;19.226;2023-11-21T00:39:57;97659.84;;;8.20;100.00
58018;BME280;43810;50.860;19.226;2023-11-21T00:42:23;97658.97;;;8.16;100.00
58018;BME280;43810;50.860;19.226;2023-11-21T00:44:49;97663.84;;;8.14;100.00
58018;BME280;43810;50.860;19.226;2023-11-21T00:47:15;97676.38;;;8.17;100.00
58018;BME280;43810;50.860;19.226;2023-11-21T00:49:41;97665.38;;;8.15;100.00
58018;BME280;43810;50.860;19.226;2023-11-21T00:52:07;97675.28;;;8.18;100.00
58018;BME280;43810;50.860;19.226;2023-11-21T00:54:33;97668.09;;;8.18;100.00
58018;BME280;43810;50.860;19.226;2023-11-21T00:56:59;97672.53;;;8.26;100.00
58018;BME280;43810;50.860;19.226;2023-11-21T00:59:25;97665.91;;;8.20;100.00
58018;BME280;43810;50.860;19.226;2023-11-21T01:01:51;97664.91;;;8.25;100.00
58018;BME280;43810;50.860;19.226;2023-11-21T01:04:17;97669.22;;;8.17;100.00
58018;BME280;43810;50.860;19.226;2023-11-21T01:06:42;97674.63;;;8.21;100.00
58018;BME280;43810;50.860;19.226;2023-11-21T01:09:08;97672.97;;;8.16;100.00
58018;BME280;43810;50.860;19.226;2023-11-21T01:11:35;97676.63;;;8.12;100.00
58018;BME280;43810;50.860;19.226;2023-11-21T01:14:05;97674.16;;;8.19;100.00
58018;BME280;43810;50.860;19.226;2023-11-21T01:16:32;97670.31;;;8.16;100.00
58018;BME280;43810;50.860;19.226;2023-11-21T01:18:59;97664.94;;;8.13;100.00
58018;BME280;43810;50.860;19.226;2023-11-21T01:21:25;97665.38;;;8.15;100.00
58018;BME280;43810;50.860;19.226;2023-11-21T01:23:50;97667.00;;;8.19;100.00
58018;BME280;43810;50.860;19.226;2023-11-21T01:26:16;97665.56;;;8.22;100.00
58018;BME280;43810;50.860;19.226;2023-11-21T01:28:42;97674.28;;;8.22;100.00
58018;BME280;43810;50.860;19.226;2023-11-21T01:31:08;97679.78;;;8.30;100.00
58018;BME280;43810;50.860;19.226;2023-11-21T01:33:33;97678.56;;;8.27;100.00
58018;BME280;43810;50.860;19.226;2023-11-21T01:35:59;97677.81;;;8.26;100.00
58018;BME280;43810;50.860;19.226;2023-11-21T01:38:25;97676.16;;;8.22;100.00
58018;BME280;43810;50.860;19.226;2023-11-21T01:40:51;97682.56;;;8.21;100.00
58018;BME280;43810;50.860;19.226;2023-11-21T01:43:17;97681.25;;;8.15;100.00
58018;BME280;43810;50.860;19.226;2023-11-21T01:45:43;97680.78;;;8.25;100.00
58018;BME280;43810;50.860;19.226;2023-11-21T01:48:10;97683.00;;;8.23;100.00
58018;BME280;43810;50.860;19.226;2023-11-21T01:50:37;97681.78;;;8.20;100.00
58018;BME280;43810;50.860;19.226;2023-11-21T01:53:03;97679.13;;;8.20;100.00
58018;BME280;43810;50.860;19.226;2023-11-21T01:55:29;97686.63;;;8.18;100.00
58018;BME280;43810;50.860;19.226;2023-11-21T01:57:56;97682.44;;;8.17;100.00
58018;BME280;43810;50.860;19.226;2023-11-21T02:00:25;97687.84;;;8.21;100.00
58018;BME280;43810;50.860;19.226;2023-11-21T02:02:53;97679.03;;;8.17;100.00
58018;BME280;43810;50.860;19.226;2023-11-21T02:05:19;97683.53;;;8.16;100.00
58018;BME280;43810;50.860;19.226;2023-11-21T02:07:46;97687.28;;;8.15;100.00
58018;BME280;43810;50.860;19.226;2023-11-21T02:10:15;97683.78;;;8.11;100.00
58018;BME280;43810;50.860;19.226;2023-11-21T02:12:41;97694.38;;;8.11;100.00
58018;BME280;43810;50.860;19.226;2023-11-21T02:15:12;97690.75;;;8.04;100.00
58018;BME280;43810;50.860;19.226;2023-11-21T02:17:46;97684.56;;;8.12;100.00
58018;BME280;43810;50.860;19.226;2023-11-21T02:20:17;97695.78;;;8.09;100.00
58018;BME280;43810;50.860;19.226;2023-11-21T02:22:53;97692.06;;;8.10;100.00
58018;BME280;43810;50.860;19.226;2023-11-21T02:25:27;97698.69;;;8.04;100.00
58018;BME280;43810;50.860;19.226;2023-11-21T02:27:57;97700.44;;;8.12;100.00
58018;BME280;43810;50.860;19.226;2023-11-21T02:30:24;97699.88;;;8.06;100.00
58018;BME280;43810;50.860;19.226;2023-11-21T02:32:59;97695.78;;;8.09;100.00
58018;BME280;43810;50.860;19.226;2023-11-21T02:35:26;97707.03;;;8.06;100.00
58018;BME280;43810;50.860;19.226;2023-11-21T02:37:52;97706.38;;;8.09;100.00
58018;BME280;43810;50.860;19.226;2023-11-21T02:40:18;97710.56;;;8.10;100.00
58018;BME280;43810;50.860;19.226;2023-11-21T02:42:49;97702.63;;;8.10;100.00
58018;BME280;43810;50.860;19.226;2023-11-21T02:45:19;97704.63;;;8.13;100.00
58018;BME280;43810;50.860;19.226;2023-11-21T02:47:46;97713.22;;;8.10;100.00
58018;BME280;43810;50.860;19.226;2023-11-21T02:50:13;97703.53;;;8.02;100.00
58018;BME280;43810;50.860;19.226;2023-11-21T02:52:39;97705.63;;;7.96;100.00
58018;BME280;43810;50.860;19.226;2023-11-21T02:55:08;97703.97;;;7.92;100.00
58018;BME280;43810;50.860;19.226;2023-11-21T02:57:33;97708.81;;;7.89;100.00
58018;BME280;43810;50.860;19.226;2023-11-21T02:59:59;97706.72;;;7.83;100.00
58018;BME280;43810;50.860;19.226;2023-11-21T03:02:25;97709.91;;;7.76;100.00
58018;BME280;43810;50.860;19.226;2023-11-21T03:04:51;97716.31;;;7.75;100.00
58018;BME280;43810;50.860;19.226;2023-11-21T03:07:17;97720.94;;;7.66;100.00
58018;BME280;43810;50.860;19.226;2023-11-21T03:09:45;97712.88;;;7.75;100.00
58018;BME280;43810;50.860;19.226;2023-11-21T03:12:11;97723.03;;;7.73;100.00
58018;BME280;43810;50.860;19.226;2023-11-21T03:14:40;97719.06;;;7.79;100.00
58018;BME280;43810;50.860;19.226;2023-11-21T03:17:06;97717.75;;;7.85;100.00
58018;BME280;43810;50.860;19.226;2023-11-21T03:19:32;97723.03;;;7.85;100.00
58018;BME280;43810;50.860;19.226;2023-11-21T03:21:57;97724.56;;;7.86;100.00
58018;BME280;43810;50.860;19.226;2023-11-21T03:24:24;97729.09;;;7.85;100.00
58018;BME280;43810;50.860;19.226;2023-11-21T03:26:52;97728.19;;;7.81;100.00
58018;BME280;43810;50.860;19.226;2023-11-21T03:29:18;97733.16;;;7.83;100.00
58018;BME280;43810;50.860;19.226;2023-11-21T03:31:44;97719.84;;;7.79;100.00
58018;BME280;43810;50.860;19.226;2023-11-21T03:34:16;97721.28;;;7.77;100.00
58018;BME280;43810;50.860;19.226;2023-11-21T03:36:41;97724.69;;;7.77;100.00
58018;BME280;43810;50.860;19.226;2023-11-21T03:39:07;97727.53;;;7.72;100.00
58018;BME280;43810;50.860;19.226;2023-11-21T03:41:33;97728.31;;;7.73;100.00
58018;BME280;43810;50.860;19.226;2023-11-21T03:43:59;97733.72;;;7.76;100.00
58018;BME280;43810;50.860;19.226;2023-11-21T03:46:25;97734.63;;;7.80;100.00
58018;BME280;43810;50.860;19.226;2023-11-21T03:48:51;97736.91;;;7.82;100.00
58018;BME280;43810;50.860;19.226;2023-11-21T03:51:17;97722.91;;;7.81;100.00
58018;BME280;43810;50.860;19.226;2023-11-21T03:53:43;97728.97;;;7.82;100.00
58018;BME280;43810;50.860;19.226;2023-11-21T03:56:08;97729.88;;;7.86;100.00
58018;BME280;43810;50.860;19.226;2023-11-21T03:58:35;97734.38;;;7.85;100.00
58018;BME280;43810;50.860;19.226;2023-11-21T04:01:00;97740.75;;;7.84;100.00
58018;BME280;43810;50.860;19.226;2023-11-21T04:03:27;97734.25;;;7.82;100.00
58018;BME280;43810;50.860;19.226;2023-11-21T04:05:52;97725.56;;;7.81;100.00
58018;BME280;43810;50.860;19.226;2023-11-21T04:08:18;97727.34;;;7.77;100.00
58018;BME280;43810;50.860;19.226;2023-11-21T04:10:44;97737.78;;;7.74;100.00
58018;BME280;43810;50.860;19.226;2023-11-21T04:13:10;97741.84;;;7.71;100.00
58018;BME280;43810;50.860;19.226;2023-11-21T04:15:35;97745.06;;;7.65;100.00
58018;BME280;43810;50.860;19.226;2023-11-21T04:18:01;97741.06;;;7.59;100.00
58018;BME280;43810;50.860;19.226;2023-11-21T04:20:27;97742.19;;;7.58;100.00
58018;BME280;43810;50.860;19.226;2023-11-21T04:22:53;97744.06;;;7.57;100.00
58018;BME280;43810;50.860;19.226;2023-11-21T04:25:19;97744.59;;;7.63;100.00
58018;BME280;43810;50.860;19.226;2023-11-21T04:27:45;97752.34;;;7.68;100.00
58018;BME280;43810;50.860;19.226;2023-11-21T04:30:12;97753.97;;;7.72;100.00
58018;BME280;43810;50.860;19.226;2023-11-21T04:32:38;97741.31;;;7.78;100.00
58018;BME280;43810;50.860;19.226;2023-11-21T04:35:05;97752.69;;;7.78;100.00
58018;BME280;43810;50.860;19.226;2023-11-21T04:37:31;97746.16;;;7.76;100.00
58018;BME280;43810;50.860;19.226;2023-11-21T04:39:57;97753.19;;;7.72;100.00
58018;BME280;43810;50.860;19.226;2023-11-21T04:42:22;97752.44;;;7.71;100.00
58018;BME280;43810;50.860;19.226;2023-11-21T04:44:48;97757.72;;;7.71;100.00
58018;BME280;43810;50.860;19.226;2023-11-21T04:47:14;97755.31;;;7.66;100.00
58018;BME280;43810;50.860;19.226;2023-11-21T04:49:43;97754.09;;;7.64;100.00
58018;BME280;43810;50.860;19.226;2023-11-21T04:52:10;97758.59;;;7.63;100.00
58018;BME280;43810;50.860;19.226;2023-11-21T04:54:36;97764.97;;;7.62;100.00
58018;BME280;43810;50.860;19.226;2023-11-21T04:57:02;97766.72;;;7.58;100.00
58018;BME280;43810;50.860;19.226;2023-11-21T04:59:27;97780.03;;;7.49;100.00
58018;BME280;43810;50.860;19.226;2023-11-21T05:01:53;97778.91;;;7.38;100.00
58018;BME280;43810;50.860;19.226;2023-11-21T05:04:19;97774.63;;;7.34;100.00
58018;BME280;43810;50.860;19.226;2023-11-21T05:06:46;97774.63;;;7.34;100.00
58018;BME280;43810;50.860;19.226;2023-11-21T05:09:13;97777.03;;;7.39;100.00
58018;BME280;43810;50.860;19.226;2023-11-21T05:11:39;97776.59;;;7.37;100.00
58018;BME280;43810;50.860;19.226;2023-11-21T05:14:06;97782.78;;;7.41;100.00
58018;BME280;43810;50.860;19.226;2023-11-21T05:16:33;97785.50;;;7.32;100.00
58018;BME280;43810;50.860;19.226;2023-11-21T05:18:59;97785.59;;;7.36;100.00
58018;BME280;43810;50.860;19.226;2023-11-21T05:21:27;97788.69;;;7.38;100.00
58018;BME280;43810;50.860;19.226;2023-11-21T05:23:53;97798.19;;;7.39;100.00
58018;BME280;43810;50.860;19.226;2023-11-21T05:26:19;97799.06;;;7.43;100.00
58018;BME280;43810;50.860;19.226;2023-11-21T05:28:44;97805.25;;;7.47;100.00
58018;BME280;43810;50.860;19.226;2023-11-21T05:31:10;97804.16;;;7.48;100.00
58018;BME280;43810;50.860;19.226;2023-11-21T05:33:36;97804.59;;;7.50;100.00
58018;BME280;43810;50.860;19.226;2023-11-21T05:36:03;97808.91;;;7.54;100.00
58018;BME280;43810;50.860;19.226;2023-11-21T05:38:28;97812.06;;;7.48;100.00
58018;BME280;43810;50.860;19.226;2023-11-21T05:40:55;97814.72;;;7.48;100.00
58018;BME280;43810;50.860;19.226;2023-11-21T05:43:20;97814.63;;;7.44;100.00
58018;BME280;43810;50.860;19.226;2023-11-21T05:45:46;97816.47;;;7.44;100.00
58018;BME280;43810;50.860;19.226;2023-11-21T05:48:12;97825.75;;;7.50;100.00
58018;BME280;43810;50.860;19.226;2023-11-21T05:50:38;97827.59;;;7.49;100.00
58018;BME280;43810;50.860;19.226;2023-11-21T05:53:03;97819.81;;;7.53;100.00
58018;BME280;43810;50.860;19.226;2023-11-21T05:55:29;97822.59;;;7.57;100.00
58018;BME280;43810;50.860;19.226;2023-11-21T05:57:55;97824.78;;;7.54;100.00
58018;BME280;43810;50.860;19.226;2023-11-21T06:00:21;97831.72;;;7.59;100.00
58018;BME280;43810;50.860;19.226;2023-11-21T06:02:52;97825.66;;;7.59;100.00
58018;BME280;43810;50.860;19.226;2023-11-21T06:05:20;97834.16;;;7.64;100.00
58018;BME280;43810;50.860;19.226;2023-11-21T06:07:48;97830.41;;;7.65;100.00
58018;BME280;43810;50.860;19.226;2023-11-21T06:10:14;97830.94;;;7.59;100.00
58018;BME280;43810;50.860;19.226;2023-11-21T06:12:40;97829.41;;;7.58;100.00
58018;BME280;43810;50.860;19.226;2023-11-21T06:15:09;97838.53;;;7.60;100.00
58018;BME280;43810;50.860;19.226;2023-11-21T06:17:35;97843.19;;;7.63;100.00
58018;BME280;43810;50.860;19.226;2023-11-21T06:20:09;97846.72;;;7.67;100.00
58018;BME280;43810;50.860;19.226;2023-11-21T06:22:37;97844.72;;;7.64;100.00
58018;BME280;43810;50.860;19.226;2023-11-21T06:25:04;97841.88;;;7.69;100.00
58018;BME280;43810;50.860;19.226;2023-11-21T06:27:47;97845.06;;;7.63;100.00
58018;BME280;43810;50.860;19.226;2023-11-21T06:30:15;97845.75;;;7.72;100.00
58018;BME280;43810;50.860;19.226;2023-11-21T06:32:42;97844.31;;;7.74;100.00
58018;BME280;43810;50.860;19.226;2023-11-21T06:35:11;97851.06;;;7.84;100.00
58018;BME280;43810;50.860;19.226;2023-11-21T06:37:37;97844.34;;;7.86;100.00
58018;BME280;43810;50.860;19.226;2023-11-21T06:40:03;97857.25;;;7.88;100.00
58018;BME280;43810;50.860;19.226;2023-11-21T06:42:29;97855.06;;;7.90;100.00
58018;BME280;43810;50.860;19.226;2023-11-21T06:44:56;97861.53;;;7.93;100.00
58018;BME280;43810;50.860;19.226;2023-11-21T06:47:23;97867.72;;;7.97;100.00
58018;BME280;43810;50.860;19.226;2023-11-21T06:49:52;97867.22;;;8.03;100.00
58018;BME280;43810;50.860;19.226;2023-11-21T06:52:18;97873.94;;;8.13;100.00
58018;BME280;43810;50.860;19.226;2023-11-21T06:54:45;97863.56;;;8.20;100.00
58018;BME280;43810;50.860;19.226;2023-11-21T06:57:12;97873.97;;;8.25;100.00
58018;BME280;43810;50.860;19.226;2023-11-21T06:59:39;97876.16;;;8.23;100.00
58018;BME280;43810;50.860;19.226;2023-11-21T07:02:04;97880.81;;;8.26;100.00
58018;BME280;43810;50.860;19.226;2023-11-21T07:04:33;97880.81;;;8.26;100.00
58018;BME280;43810;50.860;19.226;2023-11-21T07:06:58;97886.19;;;8.30;100.00
58018;BME280;43810;50.860;19.226;2023-11-21T07:09:24;97875.84;;;8.24;100.00
58018;BME280;43810;50.860;19.226;2023-11-21T07:11:52;97881.78;;;8.21;100.00
58018;BME280;43810;50.860;19.226;2023-11-21T07:14:18;97876.81;;;8.20;100.00
58018;BME280;43810;50.860;19.226;2023-11-21T07:16:45;97883.53;;;8.17;100.00
58018;BME280;43810;50.860;19.226;2023-11-21T07:19:12;97883.66;;;8.21;100.00
58018;BME280;43810;50.860;19.226;2023-11-21T07:21:38;97883.66;;;8.21;100.00
58018;BME280;43810;50.860;19.226;2023-11-21T07:24:06;97886.94;;;8.18;100.00
58018;BME280;43810;50.860;19.226;2023-11-21T07:26:33;97891.13;;;8.19;100.00
58018;BME280;43810;50.860;19.226;2023-11-21T07:29:00;97891.13;;;8.19;100.00
58018;BME280;43810;50.860;19.226;2023-11-21T07:31:26;97888.81;;;8.17;100.00
58018;BME280;43810;50.860;19.226;2023-11-21T07:33:52;97896.09;;;8.20;100.00
58018;BME280;43810;50.860;19.226;2023-11-21T07:36:19;97897.75;;;8.13;100.00
58018;BME280;43810;50.860;19.226;2023-11-21T07:38:46;97892.91;;;8.15;100.00
58018;BME280;43810;50.860;19.226;2023-11-21T07:41:13;97906.56;;;8.17;100.00
58018;BME280;43810;50.860;19.226;2023-11-21T07:43:43;97906.22;;;8.18;100.00
58018;BME280;43810;50.860;19.226;2023-11-21T07:46:10;97908.78;;;8.15;100.00
58018;BME280;43810;50.860;19.226;2023-11-21T07:48:38;97912.44;;;8.22;100.00
58018;BME280;43810;50.860;19.226;2023-11-21T07:51:04;97915.16;;;8.14;100.00
58018;BME280;43810;50.860;19.226;2023-11-21T07:53:30;97919.34;;;8.03;100.00
58018;BME280;43810;50.860;19.226;2023-11-21T07:55:57;97910.94;;;8.01;100.00
58018;BME280;43810;50.860;19.226;2023-11-21T07:58:24;97908.41;;;7.92;100.00
58018;BME280;43810;50.860;19.226;2023-11-21T08:00:50;97915.28;;;7.84;100.00
58018;BME280;43810;50.860;19.226;2023-11-21T08:03:16;97917.75;;;7.89;100.00
58018;BME280;43810;50.860;19.226;2023-11-21T08:05:45;97909.91;;;7.93;100.00
58018;BME280;43810;50.860;19.226;2023-11-21T08:08:10;97922.03;;;7.94;100.00
58018;BME280;43810;50.860;19.226;2023-11-21T08:10:36;97925.91;;;7.97;100.00
58018;BME280;43810;50.860;19.226;2023-11-21T08:13:02;97929.47;;;8.01;100.00
58018;BME280;43810;50.860;19.226;2023-11-21T08:15:29;97928.56;;;7.97;100.00
58018;BME280;43810;50.860;19.226;2023-11-21T08:17:58;97925.28;;;8.00;100.00
58018;BME280;43810;50.860;19.226;2023-11-21T08:20:26;97928.16;;;8.07;100.00
58018;BME280;43810;50.860;19.226;2023-11-21T08:22:52;97934.00;;;8.12;100.00
58018;BME280;43810;50.860;19.226;2023-11-21T08:25:18;97927.50;;;8.10;100.00
58018;BME280;43810;50.860;19.226;2023-11-21T08:27:46;97927.28;;;8.03;100.00
58018;BME280;43810;50.860;19.226;2023-11-21T08:30:12;97935.84;;;8.00;100.00
58018;BME280;43810;50.860;19.226;2023-11-21T08:32:40;97936.09;;;8.07;100.00
58018;BME280;43810;50.860;19.226;2023-11-21T08:35:07;97939.81;;;8.06;100.00
58018;BME280;43810;50.860;19.226;2023-11-21T08:37:33;97934.63;;;7.97;100.00
58018;BME280;43810;50.860;19.226;2023-11-21T08:40:06;97939.41;;;8.04;100.00
58018;BME280;43810;50.860;19.226;2023-11-21T08:42:42;97941.16;;;8.00;100.00
58018;BME280;43810;50.860;19.226;2023-11-21T08:45:08;97938.03;;;7.98;100.00
58018;BME280;43810;50.860;19.226;2023-11-21T08:47:35;97944.25;;;8.02;100.00
58018;BME280;43810;50.860;19.226;2023-11-21T08:50:02;97948.09;;;8.04;100.00
58018;BME280;43810;50.860;19.226;2023-11-21T08:52:28;97937.19;;;8.06;100.00
58018;BME280;43810;50.860;19.226;2023-11-21T08:54:54;97946.66;;;8.07;100.00
58018;BME280;43810;50.860;19.226;2023-11-21T08:57:22;97944.38;;;8.17;100.00
58018;BME280;43810;50.860;19.226;2023-11-21T08:59:48;97951.53;;;8.17;100.00
58018;BME280;43810;50.860;19.226;2023-11-21T09:02:14;97948.22;;;8.08;100.00
58018;BME280;43810;50.860;19.226;2023-11-21T09:04:39;97943.19;;;8.15;100.00
58018;BME280;43810;50.860;19.226;2023-11-21T09:07:05;97940.59;;;8.06;100.00
58018;BME280;43810;50.860;19.226;2023-11-21T09:09:31;97942.91;;;8.08;100.00
58018;BME280;43810;50.860;19.226;2023-11-21T09:11:57;97949.13;;;8.12;100.00
58018;BME280;43810;50.860;19.226;2023-11-21T09:14:22;97950.22;;;8.11;100.00
58018;BME280;43810;50.860;19.226;2023-11-21T09:16:48;97943.81;;;8.12;100.00
58018;BME280;43810;50.860;19.226;2023-11-21T09:19:15;97946.91;;;8.14;100.00
58018;BME280;43810;50.860;19.226;2023-11-21T09:21:41;97940.44;;;8.23;100.00
58018;BME280;43810;50.860;19.226;2023-11-21T09:24:07;97951.34;;;8.22;100.00
58018;BME280;43810;50.860;19.226;2023-11-21T09:26:34;97945.09;;;8.26;100.00
58018;BME280;43810;50.860;19.226;2023-11-21T09:29:00;97950.47;;;8.30;100.00
58018;BME280;43810;50.860;19.226;2023-11-21T09:31:27;97942.66;;;8.34;100.00
58018;BME280;43810;50.860;19.226;2023-11-21T09:33:53;97946.75;;;8.43;100.00
58018;BME280;43810;50.860;19.226;2023-11-21T09:36:19;97947.53;;;8.44;100.00
58018;BME280;43810;50.860;19.226;2023-11-21T09:38:46;97954.16;;;8.50;100.00
58018;BME280;43810;50.860;19.226;2023-11-21T09:41:34;97947.31;;;8.49;100.00
58018;BME280;43810;50.860;19.226;2023-11-21T09:44:05;97944.00;;;8.52;100.00
58018;BME280;43810;50.860;19.226;2023-11-21T09:46:37;97947.66;;;8.59;100.00
58018;BME280;43810;50.860;19.226;2023-11-21T09:49:08;97947.88;;;8.67;100.00
58018;BME280;43810;50.860;19.226;2023-11-21T09:51:39;97948.31;;;8.56;100.00
58018;BME280;43810;50.860;19.226;2023-11-21T09:54:09;97944.56;;;8.57;100.00
58018;BME280;43810;50.860;19.226;2023-11-21T09:56:37;97948.31;;;8.56;100.00
58018;BME280;43810;50.860;19.226;2023-11-21T09:59:03;97946.09;;;8.46;100.00
58018;BME280;43810;50.860;19.226;2023-11-21T10:01:35;97946.53;;;8.36;100.00
58018;BME280;43810;50.860;19.226;2023-11-21T10:04:02;97945.19;;;8.42;100.00
58018;BME280;43810;50.860;19.226;2023-11-21T10:06:30;97951.59;;;8.41;100.00
58018;BME280;43810;50.860;19.226;2023-11-21T10:08:56;97946.63;;;8.40;100.00
58018;BME280;43810;50.860;19.226;2023-11-21T10:11:25;97948.75;;;8.46;100.00
58018;BME280;43810;50.860;19.226;2023-11-21T10:13:53;97949.28;;;8.40;100.00
58018;BME280;43810;50.860;19.226;2023-11-21T10:16:21;97952.28;;;8.38;100.00
58018;BME280;43810;50.860;19.226;2023-11-21T10:18:54;97954.91;;;8.38;100.00
58018;BME280;43810;50.860;19.226;2023-11-21T10:21:35;97952.91;;;8.35;100.00
58018;BME280;43810;50.860;19.226;2023-11-21T10:24:02;97950.69;;;8.25;100.00
58018;BME280;43810;50.860;19.226;2023-11-21T10:26:28;97957.75;;;8.33;100.00
58018;BME280;43810;50.860;19.226;2023-11-21T10:29:01;97956.66;;;8.34;100.00
58018;BME280;43810;50.860;19.226;2023-11-21T10:31:33;97956.41;;;8.27;100.00
58018;BME280;43810;50.860;19.226;2023-11-21T10:34:19;97956.41;;;8.27;100.00
58018;BME280;43810;50.860;19.226;2023-11-21T10:36:45;97962.06;;;8.25;100.00
58018;BME280;43810;50.860;19.226;2023-11-21T10:39:20;97957.75;;;8.33;100.00
58018;BME280;43810;50.860;19.226;2023-11-21T10:41:52;97968.91;;;8.39;100.00
58018;BME280;43810;50.860;19.226;2023-11-21T10:44:23;97962.19;;;8.41;100.00
58018;BME280;43810;50.860;19.226;2023-11-21T10:46:55;97962.44;;;8.48;100.00
58018;BME280;43810;50.860;19.226;2023-11-21T10:49:31;97963.31;;;8.52;100.00
58018;BME280;43810;50.860;19.226;2023-11-21T10:51:57;97965.09;;;8.60;100.00
58018;BME280;43810;50.860;19.226;2023-11-21T10:54:24;97957.56;;;8.62;100.00
58018;BME280;43810;50.860;19.226;2023-11-21T10:57:00;97966.19;;;8.59;100.00
58018;BME280;43810;50.860;19.226;2023-11-21T10:59:30;97963.56;;;8.59;100.00
58018;BME280;43810;50.860;19.226;2023-11-21T11:01:57;97971.91;;;8.61;100.00
58018;BME280;43810;50.860;19.226;2023-11-21T11:04:25;97958.91;;;8.69;100.00
58018;BME280;43810;50.860;19.226;2023-11-21T11:06:57;97963.56;;;8.72;100.00
58018;BME280;43810;50.860;19.226;2023-11-21T11:09:28;97954.16;;;8.74;100.00
58018;BME280;43810;50.860;19.226;2023-11-21T11:11:56;97960.69;;;8.77;100.00
58018;BME280;43810;50.860;19.226;2023-11-21T11:14:25;97956.28;;;8.81;100.00
58018;BME280;43810;50.860;19.226;2023-11-21T11:16:57;97956.41;;;8.84;100.00
58018;BME280;43810;50.860;19.226;2023-11-21T11:19:39;97955.84;;;8.91;100.00
58018;BME280;43810;50.860;19.226;2023-11-21T11:22:36;97956.94;;;9.02;100.00
58018;BME280;43810;50.860;19.226;2023-11-21T11:28:11;97946.75;;;9.16;100.00
58018;BME280;43810;50.860;19.226;2023-11-21T11:36:41;97960.22;;;9.23;100.00
58018;BME280;43810;50.860;19.226;2023-11-21T11:42:23;97959.13;;;9.12;100.00
58018;BME280;43810;50.860;19.226;2023-11-21T11:44:52;97964.66;;;9.07;100.00
58018;BME280;43810;50.860;19.226;2023-11-21T11:47:25;97965.31;;;8.80;100.00
58018;BME280;43810;50.860;19.226;2023-11-21T11:55:24;97982.09;;;8.14;100.00
58018;BME280;43810;50.860;19.226;2023-11-21T11:57:54;97972.94;;;8.12;100.00
58018;BME280;43810;50.860;19.226;2023-11-21T12:02:58;97971.50;;;7.61;100.00
58018;BME280;43810;50.860;19.226;2023-11-21T12:05:26;97984.63;;;7.28;100.00
58018;BME280;43810;50.860;19.226;2023-11-21T12:08:00;97998.38;;;7.12;100.00
58018;BME280;43810;50.860;19.226;2023-11-21T12:10:36;97993.19;;;6.95;100.00
58018;BME280;43810;50.860;19.226;2023-11-21T12:13:11;97986.06;;;6.96;100.00
58018;BME280;43810;50.860;19.226;2023-11-21T12:15:50;98001.59;;;6.89;100.00
58018;BME280;43810;50.860;19.226;2023-11-21T12:18:15;97993.22;;;6.87;100.00
58018;BME280;43810;50.860;19.226;2023-11-21T12:20:41;97999.00;;;6.71;100.00
58018;BME280;43810;50.860;19.226;2023-11-21T12:23:08;98007.75;;;6.63;100.00
58018;BME280;43810;50.860;19.226;2023-11-21T12:25:35;97996.41;;;6.63;100.00
58018;BME280;43810;50.860;19.226;2023-11-21T12:28:05;97997.84;;;6.52;100.00
58018;BME280;43810;50.860;19.226;2023-11-21T12:30:37;97998.97;;;6.25;100.00
58018;BME280;43810;50.860;19.226;2023-11-21T12:33:04;97999.63;;;6.04;100.00
58018;BME280;43810;50.860;19.226;2023-11-21T12:35:36;98004.59;;;5.97;100.00
58018;BME280;43810;50.860;19.226;2023-11-21T12:38:03;98004.44;;;5.85;100.00
58018;BME280;43810;50.860;19.226;2023-11-21T12:40:36;98024.00;;;5.84;100.00
58018;BME280;43810;50.860;19.226;2023-11-21T12:43:05;98018.56;;;5.72;100.00
58018;BME280;43810;50.860;19.226;2023-11-21T12:45:36;98020.25;;;5.68;100.00
58018;BME280;43810;50.860;19.226;2023-11-21T12:48:04;98024.44;;;5.69;100.00
58018;BME280;43810;50.860;19.226;2023-11-21T12:50:38;98034.38;;;5.72;100.00
58018;BME280;43810;50.860;19.226;2023-11-21T12:53:08;98028.34;;;5.71;100.00
58018;BME280;43810;50.860;19.226;2023-11-21T12:55:35;98034.66;;;5.53;100.00
58018;BME280;43810;50.860;19.226;2023-11-21T12:58:08;98035.25;;;5.33;100.00
58018;BME280;43810;50.860;19.226;2023-11-21T13:00:48;98040.34;;;5.29;100.00
58018;BME280;43810;50.860;19.226;2023-11-21T13:03:16;98047.31;;;5.25;100.00
58018;BME280;43810;50.860;19.226;2023-11-21T13:05:51;98050.06;;;5.12;100.00
58018;BME280;43810;50.860;19.226;2023-11-21T13:08:20;98049.75;;;5.13;100.00
58018;BME280;43810;50.860;19.226;2023-11-21T13:10:59;98054.97;;;5.05;100.00
58018;BME280;43810;50.860;19.226;2023-11-21T13:13:29;98064.09;;;4.98;100.00